Fort Klamath, Oregon
Current Conditions -  °F | °C
As of 6:53 AM on Saturday 22 Nov 2014 (Local Time) from KLMT Reporting Station
Light Rain Light Rain  
Wind Chill:   Ceiling: 4700
Heat Index:   Visibility: 9mi
Dew Point:   Wind: 10mph
Humidity: 85%   Direction: 300°WNW
Pressure: 29.85"   Gusts: NA
Location:  42.7°N, 122°W
Report Text: KLMT 221453Z 30009KT 9SM -RA FEW029 SCT038 BKN047 06/03 A2985 RMK AO2 RAE04B42 SLP105 P0001 60009 T00560033 53009
Loading
Personal Weather Stations






























Interactive Weather Map New forecast layout! Learn more

10-Day Weather Forecast

Advertisements
Track Severe Weather on mobile